createdAt,value
2022-08-07T00:02:39.761Z,30.10
2022-08-07T00:05:06.513Z,29.96
2022-08-07T00:07:41.209Z,29.70
2022-08-07T00:10:29.758Z,29.69
2022-08-07T00:13:23.502Z,29.53
2022-08-07T00:15:53.844Z,29.43
2022-08-07T00:18:30.366Z,29.27
2022-08-07T00:21:07.841Z,29.32
2022-08-07T00:23:41.158Z,29.31
2022-08-07T00:26:31.420Z,29.07
2022-08-07T00:29:06.725Z,29.17
2022-08-07T00:31:42.087Z,28.93
2022-08-07T00:34:12.043Z,28.97
2022-08-07T00:36:43.590Z,28.91
2022-08-07T00:39:16.414Z,28.85
2022-08-07T00:42:02.427Z,28.77
2022-08-07T00:44:41.265Z,28.78
2022-08-07T00:48:05.203Z,28.73
2022-08-07T00:50:21.168Z,28.78
2022-08-07T00:52:49.957Z,28.73
2022-08-07T00:55:25.561Z,28.72
2022-08-07T00:58:12.551Z,28.77
2022-08-07T01:00:53.642Z,28.72
2022-08-07T01:03:57.236Z,28.69
2022-08-07T01:06:13.286Z,28.51
2022-08-07T01:08:53.142Z,28.68
2022-08-07T01:12:10.184Z,28.70
2022-08-07T01:14:15.459Z,28.69
2022-08-07T01:16:47.119Z,28.78
2022-08-07T01:19:19.788Z,28.88
2022-08-07T01:21:53.322Z,28.88
2022-08-07T01:24:24.689Z,28.92
2022-08-07T01:26:55.507Z,28.91
2022-08-07T01:29:31.323Z,28.85
2022-08-07T01:32:05.626Z,28.94
2022-08-07T01:34:47.436Z,28.97
2022-08-07T01:37:19.067Z,28.89
2022-08-07T01:39:50.105Z,28.97
2022-08-07T01:42:39.236Z,29.02
2022-08-07T01:45:18.173Z,29.04
2022-08-07T01:48:18.169Z,28.79
2022-08-07T01:50:40.203Z,28.96
2022-08-07T01:53:20.913Z,29.01
2022-08-07T01:55:58.985Z,29.06
2022-08-07T01:58:33.369Z,28.92
2022-08-07T02:01:58.989Z,28.94
2022-08-07T02:04:11.095Z,28.95
2022-08-07T02:06:42.557Z,29.02
2022-08-07T02:09:51.976Z,29.08
2022-08-07T02:12:18.270Z,29.04
2022-08-07T02:14:58.800Z,29.02
2022-08-07T02:17:33.966Z,29.03
2022-08-07T02:20:10.065Z,29.05
2022-08-07T02:22:47.577Z,28.99
2022-08-07T02:26:10.674Z,28.99
2022-08-07T02:28:25.393Z,28.72
2022-08-07T02:30:58.178Z,28.89
2022-08-07T02:33:41.858Z,28.90
2022-08-07T02:36:30.819Z,28.95
2022-08-07T02:39:09.304Z,28.94
2022-08-07T02:41:54.580Z,28.97
2022-08-07T02:44:27.425Z,28.86
2022-08-07T02:47:04.879Z,28.91
2022-08-07T02:49:58.549Z,28.98
2022-08-07T02:52:37.084Z,29.00
2022-08-07T02:55:28.297Z,29.00
2022-08-07T02:58:14.479Z,29.00
2022-08-07T03:00:46.807Z,29.00
2022-08-07T03:03:21.175Z,29.01
2022-08-07T03:05:56.365Z,28.99
2022-08-07T03:08:29.264Z,28.96
2022-08-07T03:10:59.966Z,28.84
2022-08-07T03:13:38.721Z,28.89
2022-08-07T03:16:08.770Z,28.74
2022-08-07T03:18:39.442Z,28.84
2022-08-07T03:21:13.745Z,28.76
2022-08-07T03:24:19.307Z,28.77
2022-08-07T03:26:43.096Z,28.86
2022-08-07T03:29:36.763Z,28.77
2022-08-07T03:32:13.423Z,28.91
2022-08-07T03:35:01.124Z,28.87
2022-08-07T03:37:53.155Z,28.86
2022-08-07T03:40:30.657Z,28.91
2022-08-07T03:43:09.962Z,28.91
2022-08-07T03:45:48.571Z,28.81
2022-08-07T03:48:18.359Z,28.82
2022-08-07T03:50:55.933Z,28.84
2022-08-07T03:54:00.798Z,28.76
2022-08-07T03:56:32.533Z,28.82
2022-08-07T03:59:07.098Z,28.84
2022-08-07T04:01:45.329Z,28.73
2022-08-07T04:04:18.800Z,28.90
2022-08-07T04:06:50.944Z,28.86
2022-08-07T04:09:24.325Z,28.85
2022-08-07T04:12:24.889Z,28.87
2022-08-07T04:14:47.598Z,28.71
2022-08-07T04:17:21.438Z,28.92
2022-08-07T04:19:54.865Z,28.87
2022-08-07T04:22:29.003Z,28.85
2022-08-07T04:25:02.348Z,28.84
2022-08-07T04:27:43.988Z,28.82
2022-08-07T04:30:35.831Z,28.91
2022-08-07T04:33:14.019Z,28.80
2022-08-07T04:35:50.398Z,28.81
2022-08-07T04:38:21.090Z,28.76
2022-08-07T04:40:53.213Z,28.72
2022-08-07T04:44:09.706Z,28.67
2022-08-07T04:47:04.835Z,28.45
2022-08-07T04:49:42.132Z,28.42
2022-08-07T04:52:25.216Z,28.54
2022-08-07T04:55:15.635Z,28.48
2022-08-07T04:58:29.282Z,28.35
2022-08-07T05:01:06.073Z,28.28
2022-08-07T05:04:07.435Z,28.35
2022-08-07T05:06:51.468Z,28.34
2022-08-07T05:09:45.843Z,28.30
2022-08-07T05:12:26.776Z,28.29
2022-08-07T05:15:05.066Z,28.40
2022-08-07T05:17:51.697Z,28.14
2022-08-07T05:20:28.067Z,28.34
2022-08-07T05:23:06.218Z,28.39
2022-08-07T05:26:12.847Z,28.36
2022-08-07T05:28:40.631Z,28.40
2022-08-07T05:31:10.655Z,28.38
2022-08-07T05:33:41.050Z,28.34
2022-08-07T05:36:35.221Z,28.28
2022-08-07T05:39:08.914Z,28.25
2022-08-07T05:42:02.262Z,28.21
2022-08-07T05:44:37.275Z,28.15
2022-08-07T05:47:18.702Z,28.32
2022-08-07T05:50:06.398Z,28.35
2022-08-07T05:52:35.800Z,28.17
2022-08-07T05:55:10.682Z,28.12
2022-08-07T05:57:42.653Z,28.21
2022-08-07T06:00:15.956Z,28.26
2022-08-07T06:02:51.188Z,28.24
2022-08-07T06:05:25.802Z,28.25
2022-08-07T06:08:29.954Z,28.19
2022-08-07T06:10:52.020Z,28.17
2022-08-07T06:14:10.549Z,28.25
2022-08-07T06:16:14.059Z,28.14
2022-08-07T06:18:55.667Z,28.28
2022-08-07T06:22:14.679Z,28.29
2022-08-07T06:24:41.901Z,28.27
2022-08-07T06:27:06.030Z,28.22
2022-08-07T06:29:39.008Z,28.13
2022-08-07T06:32:08.850Z,28.16
2022-08-07T06:34:45.294Z,28.11
2022-08-07T06:37:17.001Z,28.18
2022-08-07T06:40:15.858Z,28.05
2022-08-07T06:42:38.689Z,28.07
2022-08-07T06:45:12.783Z,28.01
2022-08-07T06:47:58.903Z,28.02
2022-08-07T06:50:30.351Z,28.06
2022-08-07T06:53:00.947Z,28.01
2022-08-07T06:56:00.066Z,28.14
2022-08-07T06:58:27.536Z,28.14
2022-08-07T07:00:59.421Z,28.09
2022-08-07T07:03:48.871Z,28.19
2022-08-07T07:06:23.944Z,28.15
2022-08-07T07:08:56.819Z,28.12
2022-08-07T07:12:07.791Z,28.22
2022-08-07T07:14:19.232Z,28.23
2022-08-07T07:16:55.036Z,28.23
2022-08-07T07:19:55.828Z,28.18
2022-08-07T07:22:36.787Z,28.06
2022-08-07T07:26:32.564Z,28.18
2022-08-07T07:28:42.496Z,28.21
2022-08-07T07:31:44.636Z,28.23
2022-08-07T07:34:20.477Z,28.18
2022-08-07T07:36:53.765Z,28.10
2022-08-07T07:39:25.421Z,28.06
2022-08-07T07:42:12.993Z,28.10
2022-08-07T07:44:49.519Z,28.08
2022-08-07T07:47:23.034Z,28.13
2022-08-07T07:50:35.565Z,28.07
2022-08-07T07:52:46.879Z,28.08
2022-08-07T07:55:17.169Z,28.08
2022-08-07T07:57:53.217Z,28.24
2022-08-07T08:00:29.949Z,28.25
2022-08-07T08:03:16.645Z,28.13
2022-08-07T08:05:54.803Z,28.27
2022-08-07T08:08:35.339Z,28.16
2022-08-07T08:11:13.606Z,28.02
2022-08-07T08:13:53.931Z,28.04
2022-08-07T08:16:50.419Z,28.17
2022-08-07T08:20:18.529Z,27.90
2022-08-07T08:22:35.401Z,28.08
2022-08-07T08:25:43.014Z,28.11
2022-08-07T08:28:23.893Z,28.13
2022-08-07T08:31:16.049Z,28.14
2022-08-07T08:33:49.447Z,28.03
2022-08-07T08:36:25.619Z,28.12
2022-08-07T08:39:02.811Z,28.20
2022-08-07T08:41:57.919Z,28.24
2022-08-07T08:44:45.779Z,28.22
2022-08-07T08:47:25.710Z,28.20
2022-08-07T08:50:35.387Z,28.13
2022-08-07T08:53:35.852Z,28.14
2022-08-07T08:56:38.574Z,28.07
2022-08-07T08:59:19.809Z,27.98
2022-08-07T09:02:35.143Z,28.19
2022-08-07T09:05:36.816Z,28.22
2022-08-07T09:08:46.705Z,28.03
2022-08-07T09:11:43.304Z,28.12
2022-08-07T09:14:15.946Z,28.06
2022-08-07T09:17:27.471Z,28.14
2022-08-07T09:20:35.553Z,28.19
2022-08-07T09:24:31.727Z,28.14
2022-08-07T09:27:11.893Z,28.15
2022-08-07T09:30:05.421Z,28.11
2022-08-07T09:32:46.187Z,28.21
2022-08-07T09:36:04.301Z,28.23
2022-08-07T09:38:28.462Z,28.24
2022-08-07T09:41:09.713Z,28.19
2022-08-07T09:44:05.764Z,28.12
2022-08-07T09:47:52.781Z,28.24
2022-08-07T09:50:00.664Z,28.29
2022-08-07T09:52:48.563Z,28.32
2022-08-07T09:56:05.267Z,28.24
2022-08-07T09:58:56.564Z,28.25
2022-08-07T10:01:52.419Z,28.27
2022-08-07T10:04:47.684Z,28.20
2022-08-07T10:07:39.791Z,28.26
2022-08-07T10:11:16.733Z,28.10
2022-08-07T10:14:00.959Z,28.22
2022-08-07T10:17:02.807Z,28.27
2022-08-07T10:20:13.049Z,28.24
2022-08-07T10:22:51.630Z,28.27
2022-08-07T10:25:24.744Z,28.23
2022-08-07T10:28:33.162Z,28.23
2022-08-07T10:31:39.264Z,28.28
2022-08-07T10:34:18.403Z,28.18
2022-08-07T10:37:16.140Z,28.07
2022-08-07T10:40:23.675Z,28.14
2022-08-07T10:43:34.616Z,28.12
2022-08-07T10:46:21.615Z,27.90
2022-08-07T10:49:12.005Z,28.14
2022-08-07T10:52:02.219Z,28.11
2022-08-07T10:54:53.513Z,28.07
2022-08-07T10:57:40.741Z,28.00
2022-08-07T11:00:39.171Z,28.15
2022-08-07T11:03:37.303Z,27.95
2022-08-07T11:06:41.538Z,28.19
2022-08-07T11:10:07.713Z,28.12
2022-08-07T11:12:39.341Z,28.10
2022-08-07T11:15:18.821Z,28.11
2022-08-07T11:17:56.559Z,27.98
2022-08-07T11:20:44.550Z,27.88
2022-08-07T11:23:41.469Z,27.87
2022-08-07T11:26:30.490Z,28.13
2022-08-07T11:29:05.666Z,28.11
2022-08-07T11:32:02.326Z,28.05
2022-08-07T11:34:56.345Z,28.02
2022-08-07T11:37:57.837Z,27.98
2022-08-07T11:40:56.531Z,28.03
2022-08-07T11:44:10.990Z,28.04
2022-08-07T11:46:38.670Z,28.05
2022-08-07T11:49:50.427Z,27.94
2022-08-07T11:52:35.479Z,28.02
2022-08-07T11:56:09.046Z,27.99
2022-08-07T11:58:33.516Z,28.02
2022-08-07T12:01:59.982Z,28.01
2022-08-07T12:04:48.719Z,28.01
2022-08-07T12:07:39.253Z,27.92
2022-08-07T12:10:28.218Z,27.96
2022-08-07T12:13:11.600Z,27.92
2022-08-07T12:16:11.965Z,27.93
2022-08-07T12:19:35.344Z,27.81
2022-08-07T12:22:37.520Z,27.94
2022-08-07T12:26:05.494Z,27.89
2022-08-07T12:28:31.488Z,27.88
2022-08-07T12:31:09.332Z,27.91
2022-08-07T12:34:01.329Z,27.72
2022-08-07T12:36:33.103Z,27.83
2022-08-07T12:39:41.942Z,27.73
2022-08-07T12:41:55.367Z,27.74
2022-08-07T12:44:26.978Z,27.73
2022-08-07T12:47:30.680Z,27.85
2022-08-07T12:50:33.929Z,27.77
2022-08-07T12:53:19.036Z,27.75
2022-08-07T12:56:02.797Z,27.66
2022-08-07T12:58:39.989Z,27.76
2022-08-07T13:01:40.039Z,27.76
2022-08-07T13:05:02.590Z,27.85
2022-08-07T13:08:13.422Z,27.88
2022-08-07T13:10:56.875Z,27.76
2022-08-07T13:13:50.537Z,27.70
2022-08-07T13:16:36.542Z,27.70
2022-08-07T13:19:35.158Z,27.67
2022-08-07T13:22:32.680Z,27.70
2022-08-07T13:25:29.621Z,27.68
2022-08-07T13:28:33.945Z,27.66
2022-08-07T13:31:13.459Z,27.62
2022-08-07T13:34:48.460Z,27.61
2022-08-07T13:41:06.801Z,27.51
2022-08-07T13:43:52.724Z,27.46
2022-08-07T13:46:34.977Z,27.52
2022-08-07T13:50:35.668Z,27.42
2022-08-07T13:52:30.449Z,27.20
2022-08-07T13:55:00.715Z,27.38
2022-08-07T13:57:37.627Z,27.29
2022-08-07T14:00:13.467Z,27.23
2022-08-07T14:02:59.045Z,27.17
2022-08-07T14:05:37.294Z,27.17
2022-08-07T14:08:10.105Z,27.03
2022-08-07T14:10:41.962Z,26.93
2022-08-07T14:13:17.924Z,27.03
2022-08-07T14:15:58.516Z,27.02
2022-08-07T14:18:49.815Z,26.93
2022-08-07T14:22:04.009Z,26.88
2022-08-07T14:24:27.238Z,26.89
2022-08-07T14:28:09.263Z,26.85
2022-08-07T14:30:07.805Z,26.83
2022-08-07T14:32:50.978Z,26.67
2022-08-07T14:35:45.349Z,26.79
2022-08-07T14:38:26.615Z,27.00
2022-08-07T14:41:14.796Z,27.26
2022-08-07T14:43:55.518Z,27.59
2022-08-07T14:46:33.567Z,27.78
2022-08-07T14:52:03.387Z,28.28
2022-08-07T14:54:43.001Z,28.36
2022-08-07T14:57:19.227Z,28.60
2022-08-07T15:00:06.761Z,28.74
2022-08-07T15:02:39.172Z,28.82
2022-08-07T15:05:20.245Z,28.95
2022-08-07T15:07:52.122Z,28.95
2022-08-07T15:10:30.537Z,29.12
2022-08-07T15:13:15.052Z,29.22
2022-08-07T15:15:52.777Z,29.34
2022-08-07T15:18:48.690Z,29.41
2022-08-07T15:25:16.043Z,29.57
2022-08-07T15:27:31.264Z,29.53
2022-08-07T15:30:16.697Z,29.61
2022-08-07T15:33:03.712Z,29.77
2022-08-07T15:42:43.486Z,29.90
2022-08-07T15:44:26.559Z,29.98
2022-08-07T15:47:16.928Z,29.88
2022-08-07T15:50:05.692Z,30.06
2022-08-07T15:52:52.369Z,30.12
2022-08-07T15:55:23.252Z,30.13
2022-08-07T15:58:21.050Z,30.18
2022-08-07T16:00:53.364Z,30.21
2022-08-07T16:03:47.164Z,30.27
2022-08-07T16:06:16.670Z,30.26
2022-08-07T16:08:51.260Z,30.31
2022-08-07T16:12:00.100Z,30.30
2022-08-07T16:14:44.322Z,30.30
2022-08-07T16:18:02.134Z,30.45
2022-08-07T16:22:01.544Z,30.48
2022-08-07T16:24:34.487Z,30.48
2022-08-07T16:27:40.241Z,30.55
2022-08-07T16:30:31.178Z,30.53
2022-08-07T16:34:02.172Z,30.60
2022-08-07T16:36:35.383Z,30.63
2022-08-07T16:39:40.721Z,30.64
2022-08-07T16:42:38.098Z,30.68
2022-08-07T16:46:33.544Z,30.71
2022-08-07T16:50:27.149Z,30.71
2022-08-07T16:52:51.252Z,30.70
2022-08-07T16:55:48.718Z,30.68
2022-08-07T16:58:33.625Z,30.74
2022-08-07T17:01:34.452Z,30.83
2022-08-07T17:04:29.526Z,30.76
2022-08-07T17:07:28.159Z,30.87
2022-08-07T17:10:32.390Z,30.70
2022-08-07T17:13:22.044Z,30.87
2022-08-07T17:16:08.858Z,30.94
2022-08-07T17:18:59.750Z,30.95
2022-08-07T17:21:51.219Z,30.96
2022-08-07T17:24:32.835Z,30.98
2022-08-07T17:27:10.766Z,30.97
2022-08-07T17:30:20.124Z,31.00
2022-08-07T17:34:09.586Z,31.02
2022-08-07T17:36:26.383Z,31.04
2022-08-07T17:39:10.410Z,31.05
2022-08-07T17:42:08.233Z,30.96
2022-08-07T17:44:49.950Z,31.03
2022-08-07T17:47:42.818Z,31.10
2022-08-07T17:50:30.182Z,31.00
2022-08-07T17:53:08.054Z,31.10
2022-08-07T17:56:15.339Z,31.12
2022-08-07T17:58:58.144Z,31.14
2022-08-07T18:01:40.869Z,31.02
2022-08-07T18:04:34.715Z,31.16
2022-08-07T18:07:20.247Z,31.16
2022-08-07T18:10:07.533Z,31.14
2022-08-07T18:12:43.942Z,31.19
2022-08-07T18:15:32.684Z,31.17
2022-08-07T18:18:47.730Z,31.18
2022-08-07T18:21:38.316Z,31.15
2022-08-07T18:24:33.571Z,31.15
2022-08-07T18:27:20.974Z,31.24
2022-08-07T18:30:07.718Z,31.25
2022-08-07T18:33:19.476Z,31.26
2022-08-07T18:36:08.130Z,31.28
2022-08-07T18:40:08.405Z,31.29
2022-08-07T18:42:00.918Z,31.29
2022-08-07T18:45:40.202Z,31.25
2022-08-07T18:50:05.609Z,31.31
2022-08-07T18:52:35.399Z,31.20
2022-08-07T18:54:32.470Z,31.32
2022-08-07T18:57:36.847Z,31.33
2022-08-07T19:00:34.095Z,31.29
2022-08-07T19:03:16.393Z,31.35
2022-08-07T19:06:33.618Z,31.27
2022-08-07T19:09:57.454Z,31.26
2022-08-07T19:12:19.374Z,31.37
2022-08-07T19:14:58.204Z,31.26
2022-08-07T19:18:02.530Z,31.35
2022-08-07T19:21:08.960Z,31.39
2022-08-07T19:23:59.340Z,31.35
2022-08-07T19:27:23.610Z,31.27
2022-08-07T19:31:04.300Z,31.30
2022-08-07T19:32:28.892Z,31.35
2022-08-07T19:35:07.683Z,31.42
2022-08-07T19:37:56.972Z,31.35
2022-08-07T19:40:31.182Z,31.41
2022-08-07T19:43:43.999Z,31.35
2022-08-07T19:46:09.676Z,31.46
2022-08-07T19:48:44.192Z,31.44
2022-08-07T19:51:19.486Z,31.44
2022-08-07T19:54:30.848Z,31.44
2022-08-07T19:57:52.309Z,31.48
2022-08-07T19:59:40.835Z,31.47
2022-08-07T20:02:19.649Z,31.47
2022-08-07T20:04:52.283Z,31.45
2022-08-07T20:07:45.921Z,31.40
2022-08-07T20:10:36.214Z,31.47
2022-08-07T20:13:23.750Z,31.51
2022-08-07T20:15:57.924Z,31.46
2022-08-07T20:18:32.302Z,31.50
2022-08-07T20:21:14.273Z,31.50
2022-08-07T20:24:02.334Z,31.46
2022-08-07T20:26:44.852Z,31.50
2022-08-07T20:29:48.061Z,31.51
2022-08-07T20:32:22.867Z,31.56
2022-08-07T20:34:58.941Z,31.43
2022-08-07T20:37:55.277Z,31.46
2022-08-07T20:40:33.367Z,31.55
2022-08-07T20:43:14.530Z,31.45
2022-08-07T20:46:25.636Z,31.55
2022-08-07T20:49:54.091Z,31.50
2022-08-07T20:51:36.113Z,31.56
2022-08-07T20:54:15.275Z,31.40
2022-08-07T20:57:03.376Z,31.58
2022-08-07T21:00:06.432Z,31.52
2022-08-07T21:02:54.359Z,31.58
2022-08-07T21:05:54.687Z,31.60
2022-08-07T21:08:51.851Z,31.60
2022-08-07T21:11:40.356Z,31.62
2022-08-07T21:14:33.394Z,31.60
2022-08-07T21:18:02.092Z,31.58
2022-08-07T21:20:09.956Z,31.58
2022-08-07T21:22:51.061Z,31.59
2022-08-07T21:25:30.366Z,31.62
2022-08-07T21:28:49.529Z,31.62
2022-08-07T21:32:42.692Z,31.54
2022-08-07T21:34:26.634Z,31.46
2022-08-07T21:37:23.823Z,31.59
2022-08-07T21:40:06.887Z,31.64
2022-08-07T21:42:48.305Z,31.64
2022-08-07T21:46:07.806Z,31.67
2022-08-07T21:49:04.686Z,31.68
2022-08-07T21:51:54.953Z,31.69
2022-08-07T21:54:48.626Z,31.69
2022-08-07T21:57:55.075Z,31.73
2022-08-07T22:00:26.519Z,31.71
2022-08-07T22:02:59.533Z,31.51
2022-08-07T22:05:44.670Z,31.34
2022-08-07T22:08:18.958Z,31.18
2022-08-07T22:10:54.947Z,31.33
2022-08-07T22:13:52.419Z,31.32
2022-08-07T22:16:38.653Z,31.14
2022-08-07T22:19:30.005Z,31.00
2022-08-07T22:22:18.199Z,30.75
2022-08-07T22:25:28.703Z,30.38
2022-08-07T22:28:32.115Z,30.09
2022-08-07T22:31:09.129Z,29.85
2022-08-07T22:33:57.402Z,29.70
2022-08-07T22:36:46.412Z,29.57
2022-08-07T22:39:51.881Z,29.26
2022-08-07T22:42:30.398Z,29.23
2022-08-07T22:45:04.066Z,29.11
2022-08-07T22:48:02.185Z,28.92
2022-08-07T22:50:57.411Z,28.88
2022-08-07T22:54:07.611Z,28.72
2022-08-07T22:57:00.700Z,28.68
2022-08-07T22:59:49.970Z,28.66
2022-08-07T23:02:43.953Z,28.51
2022-08-07T23:06:09.462Z,28.51
2022-08-07T23:08:31.570Z,28.57
2022-08-07T23:11:19.562Z,28.69
2022-08-07T23:14:16.117Z,28.70
2022-08-07T23:17:20.159Z,28.67
2022-08-07T23:20:40.772Z,28.66
2022-08-07T23:24:04.300Z,28.59
2022-08-07T23:27:04.571Z,28.54
2022-08-07T23:30:38.397Z,28.53
2022-08-07T23:34:36.301Z,28.63
2022-08-07T23:36:17.279Z,28.57
2022-08-07T23:38:58.746Z,28.78
2022-08-07T23:41:34.081Z,28.67
2022-08-07T23:44:47.894Z,28.54
2022-08-07T23:47:46.579Z,28.46
2022-08-07T23:50:36.843Z,28.41
2022-08-07T23:53:51.632Z,28.45
2022-08-07T23:56:54.579Z,28.49
